createdAt,value
2022-08-05T00:01:28.438Z,67.70
2022-08-05T00:03:56.767Z,67.70
2022-08-05T00:06:32.391Z,67.60
2022-08-05T00:09:03.518Z,67.80
2022-08-05T00:11:34.793Z,67.30
2022-08-05T00:14:13.085Z,67.70
2022-08-05T00:16:52.637Z,67.80
2022-08-05T00:19:24.856Z,67.00
2022-08-05T00:21:59.868Z,66.80
2022-08-05T00:24:30.679Z,66.60
2022-08-05T00:26:59.487Z,66.30
2022-08-05T00:29:26.238Z,65.80
2022-08-05T00:32:12.142Z,66.10
2022-08-05T00:34:56.931Z,65.80
2022-08-05T00:37:35.591Z,65.70
2022-08-05T00:40:17.904Z,65.60
2022-08-05T00:42:54.863Z,65.90
2022-08-05T00:45:37.899Z,66.00
2022-08-05T00:48:10.010Z,65.80
2022-08-05T00:50:37.356Z,66.30
2022-08-05T00:53:09.728Z,66.20
2022-08-05T00:55:50.995Z,66.40
2022-08-05T00:58:19.188Z,66.60
2022-08-05T01:00:46.278Z,66.80
2022-08-05T01:03:22.776Z,66.90
2022-08-05T01:05:54.634Z,67.00
2022-08-05T01:08:39.200Z,67.20
2022-08-05T01:11:13.666Z,67.20
2022-08-05T01:13:57.391Z,67.70
2022-08-05T01:16:28.624Z,67.80
2022-08-05T01:19:00.884Z,67.90
2022-08-05T01:21:38.010Z,68.60
2022-08-05T01:24:14.339Z,68.80
2022-08-05T01:26:51.175Z,68.70
2022-08-05T01:29:23.229Z,68.80
2022-08-05T01:31:52.612Z,69.20
2022-08-05T01:34:26.701Z,69.40
2022-08-05T01:37:00.461Z,69.10
2022-08-05T01:39:45.630Z,69.40
2022-08-05T01:42:15.332Z,69.70
2022-08-05T01:44:43.012Z,69.60
2022-08-05T01:47:12.645Z,70.00
2022-08-05T01:50:00.438Z,70.00
2022-08-05T01:52:27.655Z,70.70
2022-08-05T01:54:56.676Z,71.10
2022-08-05T01:58:10.383Z,71.50
2022-08-05T02:00:15.082Z,71.30
2022-08-05T02:02:51.086Z,71.40
2022-08-05T02:05:23.561Z,71.20
2022-08-05T02:08:00.076Z,71.50
2022-08-05T02:10:30.814Z,72.20
2022-08-05T02:13:01.758Z,71.50
2022-08-05T02:15:35.428Z,71.70
2022-08-05T02:18:31.562Z,71.60
2022-08-05T02:20:58.879Z,72.00
2022-08-05T02:23:28.963Z,72.30
2022-08-05T02:26:02.189Z,72.30
2022-08-05T02:28:33.110Z,72.80
2022-08-05T02:31:06.015Z,73.10
2022-08-05T02:33:38.773Z,73.40
2022-08-05T02:36:09.321Z,73.60
2022-08-05T02:38:37.404Z,73.70
2022-08-05T02:41:14.798Z,74.20
2022-08-05T02:44:02.762Z,73.90
2022-08-05T02:46:33.243Z,74.00
2022-08-05T02:49:01.900Z,74.30
2022-08-05T02:52:04.380Z,74.60
2022-08-05T02:54:36.170Z,74.60
2022-08-05T02:57:03.762Z,74.90
2022-08-05T02:59:47.775Z,75.30
2022-08-05T03:02:15.867Z,75.20
2022-08-05T03:04:43.671Z,74.90
2022-08-05T03:07:40.662Z,75.40
2022-08-05T03:09:57.344Z,75.60
2022-08-05T03:12:37.313Z,76.00
2022-08-05T03:15:09.184Z,76.50
2022-08-05T03:17:41.948Z,76.20
2022-08-05T03:20:11.681Z,76.40
2022-08-05T03:22:44.213Z,76.80
2022-08-05T03:25:34.093Z,77.10
2022-08-05T03:28:05.572Z,77.30
2022-08-05T03:30:34.237Z,76.90
2022-08-05T03:33:01.690Z,76.90
2022-08-05T03:35:28.673Z,77.20
2022-08-05T03:37:59.011Z,77.50
2022-08-05T03:40:31.870Z,78.10
2022-08-05T03:42:59.611Z,78.60
2022-08-05T03:45:57.694Z,78.90
2022-08-05T03:48:26.840Z,79.20
2022-08-05T03:52:35.338Z,79.20
2022-08-05T03:55:07.137Z,79.20
2022-08-05T03:56:46.517Z,80.30
2022-08-05T03:59:29.218Z,79.60
2022-08-05T04:02:15.021Z,80.30
2022-08-05T04:04:44.790Z,80.20
2022-08-05T04:07:11.584Z,80.30
2022-08-05T04:09:53.741Z,80.20
2022-08-05T04:12:24.363Z,80.60
2022-08-05T04:14:51.973Z,80.30
2022-08-05T04:17:18.799Z,80.30
2022-08-05T04:19:46.880Z,81.10
2022-08-05T04:22:21.378Z,81.20
2022-08-05T04:24:52.475Z,81.20
2022-08-05T04:27:19.762Z,81.00
2022-08-05T04:30:07.291Z,81.60
2022-08-05T04:32:34.057Z,82.30
2022-08-05T04:35:03.463Z,81.60
2022-08-05T04:38:02.181Z,82.00
2022-08-05T04:40:19.789Z,81.00
2022-08-05T04:42:46.542Z,81.60
2022-08-05T04:45:14.204Z,81.10
2022-08-05T04:48:16.449Z,80.50
2022-08-05T04:51:03.547Z,81.30
2022-08-05T04:53:38.910Z,80.30
2022-08-05T04:56:33.408Z,79.70
2022-08-05T04:58:55.542Z,79.30
2022-08-05T05:02:04.131Z,79.10
2022-08-05T05:04:09.687Z,78.80
2022-08-05T05:06:44.541Z,79.50
2022-08-05T05:09:17.712Z,79.30
2022-08-05T05:11:54.079Z,79.10
2022-08-05T05:14:27.928Z,78.90
2022-08-05T05:17:01.794Z,78.90
2022-08-05T05:19:36.908Z,78.90
2022-08-05T05:22:24.283Z,78.70
2022-08-05T05:24:57.302Z,79.00
2022-08-05T05:27:44.969Z,79.00
2022-08-05T05:30:31.305Z,78.80
2022-08-05T05:33:03.477Z,77.90
2022-08-05T05:35:42.442Z,78.50
2022-08-05T05:38:13.383Z,78.50
2022-08-05T05:40:48.081Z,78.90
2022-08-05T05:43:28.114Z,79.20
2022-08-05T05:46:10.634Z,79.40
2022-08-05T05:48:44.424Z,79.30
2022-08-05T05:51:15.414Z,79.70
2022-08-05T05:53:54.423Z,79.90
2022-08-05T05:56:33.047Z,80.50
2022-08-05T05:59:06.407Z,81.70
2022-08-05T06:01:37.934Z,80.80
2022-08-05T06:04:12.175Z,80.80
2022-08-05T06:06:41.667Z,80.60
2022-08-05T06:09:08.795Z,81.10
2022-08-05T06:11:35.608Z,81.10
2022-08-05T06:14:06.053Z,81.00
2022-08-05T06:16:37.117Z,80.80
2022-08-05T06:19:05.617Z,80.80
2022-08-05T06:21:36.457Z,80.50
2022-08-05T06:24:05.997Z,80.40
2022-08-05T06:26:35.107Z,80.20
2022-08-05T06:29:03.354Z,79.20
2022-08-05T06:31:33.680Z,78.30
2022-08-05T06:34:06.334Z,77.00
2022-08-05T06:36:55.291Z,76.40
2022-08-05T06:39:21.876Z,76.20
2022-08-05T06:41:51.199Z,76.50
2022-08-05T06:44:18.842Z,76.20
2022-08-05T06:46:50.895Z,76.20
2022-08-05T06:49:18.795Z,76.80
2022-08-05T06:51:48.000Z,75.50
2022-08-05T06:54:18.929Z,75.50
2022-08-05T06:56:54.840Z,74.70
2022-08-05T06:59:38.468Z,74.40
2022-08-05T07:02:05.823Z,74.10
2022-08-05T07:04:32.443Z,73.70
2022-08-05T07:07:00.051Z,73.50
2022-08-05T07:09:26.815Z,73.90
2022-08-05T07:12:00.436Z,73.90
2022-08-05T07:14:46.124Z,73.50
2022-08-05T07:17:58.903Z,73.70
2022-08-05T07:22:47.831Z,73.50
2022-08-05T07:25:54.320Z,73.30
2022-08-05T07:28:05.768Z,72.80
2022-08-05T07:30:38.824Z,72.30
2022-08-05T07:33:10.010Z,71.70
2022-08-05T07:36:02.114Z,72.00
2022-08-05T07:38:34.291Z,71.10
2022-08-05T07:41:35.152Z,70.10
2022-08-05T07:43:50.281Z,70.60
2022-08-05T07:46:23.502Z,70.20
2022-08-05T07:49:02.945Z,70.10
2022-08-05T07:51:36.306Z,69.20
2022-08-05T07:54:04.817Z,70.20
2022-08-05T07:57:02.476Z,70.20
2022-08-05T07:59:23.319Z,71.70
2022-08-05T08:02:05.145Z,72.20
2022-08-05T08:04:37.450Z,70.80
2022-08-05T08:07:07.081Z,69.80
2022-08-05T08:09:34.909Z,70.40
2022-08-05T08:12:11.195Z,70.50
2022-08-05T08:14:46.801Z,69.30
2022-08-05T08:17:16.166Z,68.50
2022-08-05T08:20:44.174Z,69.20
2022-08-05T08:22:30.521Z,68.90
2022-08-05T08:25:03.190Z,67.10
2022-08-05T08:27:40.213Z,67.40
2022-08-05T08:30:20.181Z,66.90
2022-08-05T08:33:02.389Z,67.10
2022-08-05T08:35:34.696Z,66.60
2022-08-05T08:38:01.997Z,66.10
2022-08-05T08:40:29.133Z,66.30
2022-08-05T08:42:56.615Z,66.00
2022-08-05T08:45:27.024Z,64.90
2022-08-05T08:48:11.293Z,65.20
2022-08-05T08:51:03.318Z,64.00
2022-08-05T08:53:35.703Z,64.50
2022-08-05T08:56:05.987Z,64.00
2022-08-05T08:58:44.014Z,64.20
2022-08-05T09:01:16.391Z,64.20
2022-08-05T09:03:45.743Z,63.70
2022-08-05T09:06:16.977Z,64.10
2022-08-05T09:08:46.762Z,64.40
2022-08-05T09:11:14.881Z,61.80
2022-08-05T09:14:09.555Z,62.70
2022-08-05T09:16:29.904Z,63.00
2022-08-05T09:18:56.775Z,63.10
2022-08-05T09:22:23.109Z,62.70
2022-08-05T09:24:15.544Z,63.00
2022-08-05T09:26:46.178Z,63.20
2022-08-05T09:29:17.609Z,63.10
2022-08-05T09:32:46.102Z,62.20
2022-08-05T09:34:48.678Z,61.80
2022-08-05T09:37:17.286Z,60.80
2022-08-05T09:40:04.634Z,60.40
2022-08-05T09:42:39.277Z,60.60
2022-08-05T09:46:05.069Z,60.70
2022-08-05T09:47:56.270Z,59.60
2022-08-05T09:50:38.497Z,59.50
2022-08-05T09:53:17.136Z,60.20
2022-08-05T09:55:56.848Z,60.40
2022-08-05T09:58:26.803Z,61.50
2022-08-05T10:01:00.744Z,60.80
2022-08-05T10:03:45.332Z,60.80
2022-08-05T10:06:19.355Z,60.50
2022-08-05T10:08:50.340Z,61.00
2022-08-05T10:11:22.833Z,61.10
2022-08-05T10:13:50.000Z,62.20
2022-08-05T10:16:30.146Z,60.70
2022-08-05T10:18:57.092Z,61.20
2022-08-05T10:21:24.116Z,61.60
2022-08-05T10:23:59.087Z,60.70
2022-08-05T10:26:31.737Z,60.20
2022-08-05T10:29:00.830Z,60.50
2022-08-05T10:32:52.565Z,60.40
2022-08-05T10:34:14.392Z,60.40
2022-08-05T10:36:44.157Z,59.70
2022-08-05T10:39:59.311Z,59.90
2022-08-05T10:42:22.824Z,60.10
2022-08-05T10:45:01.082Z,59.60
2022-08-05T10:47:32.815Z,59.30
2022-08-05T10:50:32.695Z,59.70
2022-08-05T10:52:52.435Z,60.00
2022-08-05T10:55:25.946Z,59.80
2022-08-05T10:58:09.328Z,59.90
2022-08-05T11:00:45.664Z,59.70
2022-08-05T11:03:25.226Z,59.50
2022-08-05T11:06:04.254Z,59.70
2022-08-05T11:08:37.097Z,58.50
2022-08-05T11:11:23.344Z,58.30
2022-08-05T11:14:00.628Z,58.40
2022-08-05T11:16:33.814Z,58.10
2022-08-05T11:20:10.111Z,58.40
2022-08-05T11:22:29.626Z,58.40
2022-08-05T11:25:16.831Z,58.60
2022-08-05T11:28:17.174Z,58.60
2022-08-05T11:31:06.209Z,59.20
2022-08-05T11:33:43.735Z,58.80
2022-08-05T11:36:14.585Z,58.40
2022-08-05T11:38:45.272Z,58.20
2022-08-05T11:41:56.525Z,58.10
2022-08-05T11:44:12.714Z,58.00
2022-08-05T11:47:10.933Z,57.10
2022-08-05T11:49:39.212Z,57.70
2022-08-05T11:52:11.945Z,56.70
2022-08-05T11:54:41.532Z,57.00
2022-08-05T11:57:25.066Z,56.40
2022-08-05T11:59:53.048Z,56.10
2022-08-05T12:02:30.022Z,55.80
2022-08-05T12:04:59.629Z,56.70
2022-08-05T12:08:08.520Z,56.10
2022-08-05T12:10:18.103Z,55.70
2022-08-05T12:12:58.292Z,55.60
2022-08-05T12:15:37.955Z,56.00
2022-08-05T12:18:11.073Z,56.00
2022-08-05T12:20:39.205Z,55.90
2022-08-05T12:23:12.290Z,56.10
2022-08-05T12:25:58.754Z,55.40
2022-08-05T12:28:33.221Z,55.10
2022-08-05T12:31:02.207Z,55.70
2022-08-05T12:33:36.554Z,55.60
2022-08-05T12:36:07.215Z,55.90
2022-08-05T12:38:41.843Z,54.90
2022-08-05T12:41:13.157Z,55.20
2022-08-05T12:43:50.991Z,55.80
2022-08-05T12:46:29.296Z,55.60
2022-08-05T12:49:13.566Z,56.30
2022-08-05T12:52:13.618Z,56.00
2022-08-05T12:54:33.415Z,55.70
2022-08-05T12:57:04.772Z,55.90
2022-08-05T13:01:57.149Z,55.50
2022-08-05T13:02:39.870Z,55.10
2022-08-05T13:05:07.121Z,54.80
2022-08-05T13:07:59.146Z,55.20
2022-08-05T13:10:20.720Z,54.30
2022-08-05T13:12:57.455Z,53.60
2022-08-05T13:15:42.252Z,53.50
2022-08-05T13:18:19.576Z,53.80
2022-08-05T13:20:49.311Z,54.30
2022-08-05T13:23:18.200Z,55.00
2022-08-05T13:25:59.321Z,55.60
2022-08-05T13:28:28.297Z,55.70
2022-08-05T13:30:55.493Z,56.20
2022-08-05T13:34:21.911Z,56.40
2022-08-05T13:36:10.945Z,56.50
2022-08-05T13:38:42.191Z,56.00
2022-08-05T13:41:12.383Z,56.70
2022-08-05T13:43:45.689Z,56.70
2022-08-05T13:46:43.767Z,57.20
2022-08-05T13:49:10.343Z,56.90
2022-08-05T13:51:40.818Z,57.10
2022-08-05T13:54:12.676Z,56.70
2022-08-05T13:56:45.028Z,56.40
2022-08-05T13:59:24.375Z,56.70
2022-08-05T14:01:59.123Z,56.50
2022-08-05T14:04:55.139Z,56.00
2022-08-05T14:08:00.327Z,56.10
2022-08-05T14:10:14.004Z,55.60
2022-08-05T14:12:48.804Z,55.50
2022-08-05T14:16:09.043Z,55.70
2022-08-05T14:18:03.851Z,55.50
2022-08-05T14:20:30.947Z,55.10
2022-08-05T14:22:58.471Z,55.00
2022-08-05T14:25:27.966Z,55.40
2022-08-05T14:27:55.698Z,55.00
2022-08-05T14:30:22.688Z,55.40
2022-08-05T14:32:53.290Z,55.10
2022-08-05T14:35:20.639Z,55.10
2022-08-05T14:37:53.557Z,54.40
2022-08-05T14:40:24.167Z,54.60
2022-08-05T14:42:51.568Z,54.40
2022-08-05T14:45:18.778Z,55.00
2022-08-05T14:48:03.318Z,54.30
2022-08-05T14:50:32.771Z,53.40
2022-08-05T14:53:03.095Z,53.20
2022-08-05T14:55:39.297Z,54.00
2022-08-05T14:58:11.907Z,53.90
2022-08-05T15:00:59.446Z,53.50
2022-08-05T15:03:33.573Z,53.20
2022-08-05T15:06:07.454Z,53.60
2022-08-05T15:09:01.226Z,53.90
2022-08-05T15:11:51.276Z,53.40
2022-08-05T15:14:33.623Z,52.90
2022-08-05T15:17:01.655Z,53.30
2022-08-05T15:19:30.747Z,54.30
2022-08-05T15:21:58.771Z,54.30
2022-08-05T15:24:27.540Z,54.50
2022-08-05T15:26:56.011Z,54.70
2022-08-05T15:29:23.928Z,54.70
2022-08-05T15:32:02.125Z,55.00
2022-08-05T15:34:33.066Z,55.50
2022-08-05T15:37:06.081Z,55.40
2022-08-05T15:41:04.618Z,55.70
2022-08-05T15:42:56.751Z,56.60
2022-08-05T15:45:07.825Z,57.30
2022-08-05T15:47:37.219Z,57.80
2022-08-05T15:50:07.243Z,58.20
2022-08-05T15:52:54.759Z,58.60
2022-08-05T15:55:24.591Z,59.30
2022-08-05T15:58:08.352Z,59.90
2022-08-05T16:00:50.894Z,60.00
2022-08-05T16:03:21.954Z,60.40
2022-08-05T16:05:52.564Z,60.80
2022-08-05T16:08:19.603Z,61.50
2022-08-05T16:10:46.766Z,62.10
2022-08-05T16:13:23.517Z,63.00
2022-08-05T16:15:51.918Z,63.70
2022-08-05T16:18:19.140Z,64.10
2022-08-05T16:20:46.470Z,64.90
2022-08-05T16:23:13.278Z,65.40
2022-08-05T16:25:40.195Z,65.80
2022-08-05T16:28:09.448Z,65.90
2022-08-05T16:30:37.346Z,65.90
2022-08-05T16:33:04.311Z,65.90
2022-08-05T16:35:32.400Z,66.40
2022-08-05T16:38:18.516Z,66.90
2022-08-05T16:40:59.556Z,67.40
2022-08-05T16:43:29.130Z,68.10
2022-08-05T16:46:04.888Z,69.00
2022-08-05T16:48:35.917Z,68.90
2022-08-05T16:51:03.846Z,69.40
2022-08-05T16:54:06.167Z,69.50
2022-08-05T16:56:29.353Z,70.00
2022-08-05T16:58:57.283Z,70.20
2022-08-05T17:01:24.568Z,70.00
2022-08-05T17:03:51.973Z,70.30
2022-08-05T17:06:19.211Z,70.50
2022-08-05T17:08:52.688Z,70.80
2022-08-05T17:11:20.621Z,71.20
2022-08-05T17:13:50.704Z,71.40
2022-08-05T17:16:33.668Z,71.50
2022-08-05T17:19:02.952Z,71.10
2022-08-05T17:21:36.002Z,71.70
2022-08-05T17:24:30.312Z,71.80
2022-08-05T17:26:53.621Z,72.10
2022-08-05T17:29:32.857Z,72.90
2022-08-05T17:32:06.997Z,72.90
2022-08-05T17:34:35.833Z,73.00
2022-08-05T17:37:04.678Z,73.40
2022-08-05T17:39:55.040Z,73.80
2022-08-05T17:42:28.925Z,74.00
2022-08-05T17:44:57.142Z,74.00
2022-08-05T17:47:24.184Z,74.00
2022-08-05T17:50:03.993Z,74.10
2022-08-05T17:52:52.626Z,74.30
2022-08-05T17:55:22.146Z,74.60
2022-08-05T17:57:50.256Z,74.80
2022-08-05T18:00:18.553Z,74.90
2022-08-05T18:02:47.620Z,75.00
2022-08-05T18:05:16.910Z,75.10
2022-08-05T18:07:44.618Z,75.10
2022-08-05T18:10:20.356Z,75.20
2022-08-05T18:12:48.643Z,75.10
2022-08-05T18:15:15.374Z,76.10
2022-08-05T18:18:01.554Z,75.30
2022-08-05T18:20:29.487Z,75.40
2022-08-05T18:23:11.455Z,75.40
2022-08-05T18:25:39.489Z,75.40
2022-08-05T18:28:10.759Z,75.60
2022-08-05T18:30:39.253Z,75.70
2022-08-05T18:33:08.416Z,75.70
2022-08-05T18:36:00.937Z,76.00
2022-08-05T18:38:25.955Z,76.20
2022-08-05T18:41:55.145Z,76.00
2022-08-05T18:43:43.259Z,76.40
2022-08-05T18:46:19.812Z,76.20
2022-08-05T18:48:51.867Z,76.60
2022-08-05T18:52:05.108Z,76.10
2022-08-05T18:54:25.606Z,76.40
2022-08-05T18:56:52.306Z,76.90
2022-08-05T18:59:43.559Z,76.80
2022-08-05T19:02:11.463Z,77.00
2022-08-05T19:05:01.784Z,76.70
2022-08-05T19:07:46.725Z,77.00
2022-08-05T19:10:14.114Z,77.20
2022-08-05T19:12:40.818Z,77.30
2022-08-05T19:15:24.998Z,77.30
2022-08-05T19:18:08.273Z,77.20
2022-08-05T19:20:37.355Z,77.60
2022-08-05T19:23:08.752Z,78.00
2022-08-05T19:26:01.878Z,78.30
2022-08-05T19:28:30.923Z,78.80
2022-08-05T19:30:57.752Z,80.40
2022-08-05T19:33:33.963Z,79.80
2022-08-05T19:36:06.277Z,81.60
2022-08-05T19:38:36.898Z,81.20
2022-08-05T19:41:07.136Z,82.20
2022-08-05T19:44:06.548Z,83.80
2022-08-05T19:46:29.605Z,82.60
2022-08-05T19:49:02.964Z,84.20
2022-08-05T19:52:06.062Z,86.30
2022-08-05T19:54:27.225Z,88.30
2022-08-05T19:56:58.543Z,89.90
2022-08-05T19:59:54.669Z,90.60
2022-08-05T20:02:12.888Z,94.30
2022-08-05T20:04:42.967Z,95.30
2022-08-05T20:07:13.156Z,96.70
2022-08-05T20:09:53.669Z,97.40
2022-08-05T20:12:23.392Z,98.50
2022-08-05T20:14:52.320Z,99.20
2022-08-05T20:17:19.877Z,99.90
2022-08-05T20:19:51.124Z,99.90
2022-08-05T20:22:24.166Z,99.90
2022-08-05T20:24:53.972Z,99.90
2022-08-05T20:27:21.089Z,99.90
2022-08-05T20:29:58.480Z,99.90
2022-08-05T20:32:26.370Z,99.90
2022-08-05T20:34:53.480Z,99.90
2022-08-05T20:38:04.803Z,99.90
2022-08-05T20:40:07.499Z,99.90
2022-08-05T20:42:35.490Z,99.90
2022-08-05T20:45:02.941Z,99.90
2022-08-05T20:47:32.233Z,99.90
2022-08-05T20:50:02.142Z,99.90
2022-08-05T20:52:30.012Z,99.90
2022-08-05T20:55:55.733Z,99.90
2022-08-05T20:57:47.380Z,99.90
2022-08-05T21:00:40.235Z,99.90
2022-08-05T21:03:08.042Z,99.90
2022-08-05T21:05:38.319Z,99.90
2022-08-05T21:08:15.235Z,99.90
2022-08-05T21:10:48.481Z,99.90
2022-08-05T21:13:37.795Z,99.90
2022-08-05T21:16:03.564Z,99.90
2022-08-05T21:18:30.507Z,99.90
2022-08-05T21:20:57.535Z,99.90
2022-08-05T21:23:25.015Z,99.90
2022-08-05T21:25:51.810Z,99.90
2022-08-05T21:28:23.628Z,99.90
2022-08-05T21:30:50.833Z,99.90
2022-08-05T21:33:22.528Z,99.90
2022-08-05T21:35:58.529Z,99.90
2022-08-05T21:38:26.524Z,99.90
2022-08-05T21:40:53.199Z,99.90
2022-08-05T21:43:24.445Z,99.90
2022-08-05T21:45:57.882Z,99.90
2022-08-05T21:48:27.600Z,99.90
2022-08-05T21:50:54.631Z,99.90
2022-08-05T21:53:21.585Z,99.90
2022-08-05T21:56:06.334Z,99.90
2022-08-05T21:58:42.152Z,99.90
2022-08-05T22:01:10.700Z,99.90
2022-08-05T22:03:48.878Z,99.90
2022-08-05T22:06:22.327Z,99.90
2022-08-05T22:08:51.848Z,99.90
2022-08-05T22:11:19.199Z,99.90
2022-08-05T22:14:19.870Z,99.90
2022-08-05T22:16:51.969Z,99.90
2022-08-05T22:20:00.976Z,99.90
2022-08-05T22:22:07.512Z,99.90
2022-08-05T22:24:56.004Z,99.90
2022-08-05T22:28:05.034Z,99.90
2022-08-05T22:30:35.162Z,99.90
2022-08-05T22:33:03.395Z,99.90
2022-08-05T22:35:31.047Z,99.90
2022-08-05T22:38:05.524Z,99.90
2022-08-05T22:40:32.277Z,99.90
2022-08-05T22:42:59.754Z,99.90
2022-08-05T22:45:26.545Z,99.90
2022-08-05T22:47:55.269Z,99.90
2022-08-05T22:50:27.831Z,99.90
2022-08-05T22:52:55.000Z,99.90
2022-08-05T22:55:22.612Z,99.90
2022-08-05T22:57:50.123Z,99.90
2022-08-05T23:00:18.315Z,99.90
2022-08-05T23:02:48.142Z,99.90
2022-08-05T23:05:15.437Z,99.90
2022-08-05T23:07:44.979Z,99.90
2022-08-05T23:10:16.186Z,99.90
2022-08-05T23:12:46.382Z,99.90
2022-08-05T23:15:13.621Z,99.90
2022-08-05T23:18:00.584Z,99.90
2022-08-05T23:20:29.644Z,99.90
2022-08-05T23:22:56.623Z,99.90
2022-08-05T23:25:54.917Z,99.90
2022-08-05T23:28:12.431Z,99.90
2022-08-05T23:30:43.753Z,99.90
2022-08-05T23:33:16.486Z,99.90
2022-08-05T23:35:49.053Z,99.90
2022-08-05T23:38:16.253Z,99.90
2022-08-05T23:40:49.829Z,99.90
2022-08-05T23:43:24.965Z,99.90
2022-08-05T23:46:19.953Z,99.90
2022-08-05T23:49:01.076Z,99.90
2022-08-05T23:51:54.946Z,99.90
2022-08-05T23:54:25.685Z,99.90
2022-08-05T23:56:53.861Z,99.90
2022-08-05T23:59:20.513Z,99.90
